2011. június 25-én a Malév, HA-LOC lajstromjelű, Boeing 737-800-as repülőgépének farokrésze a futópályának csapódott Heraklion repülőterén történő leszállás során – számolt be több a céghez közel álló forrásunk és egy légibaleseteket (eseményeket) feldolgozó, angol nyelvű weboldal.

A Malév Boeing 737-800-as, HA-LOC lajstromjelű repülőgépe a MA906-os járatát teljesítette Budapest és Heraklion (Görögország) között, 180 utassal és 7 fő személyzettel a fedélzetén. A gép helyi idő szerint 15:47-kor landolt Heraklionban, a gép farok része ekkor csapódott a futópályához. A repülőgép személyzete ezt követően szerencsére a futópályán tudta tartani és időben le tudta fékezni a repülőgépet majd a kijelölt állóhelyre gurultak. Az AVHerald és szemtanuk beszámolói szerint a repülőgép komoly károsodásokat szenvedett.
UPDATE: egy kép a sérült farokrészről itt!

A cosmo.gr görög hírportál “légibalesetként” számolt be az esetről. Bővebben itt!

Az esemény idején Heraklionban a megfelelőek voltak az időjárási körülmények a leszálláshoz. Csapadék nem volt, a látástávolság megfelelő volt és nem volt erős szél sem a METAR riportok alapján. A Heraklioni repülőtér 09/27-es futópályája 2682 méter hosszú és 45 méter széles. A leszálláskor a szél 310 fokról 08KT (csomó) volt, bár a tenger közelsége miatt előfordulhatott hirtelen szélnyírás.

A Malév a Heraklionból Budapestre visszafele tartó, MA907-es járatát törölni kellett, a 161 utasért egy másik repülőgépet küldött a légitársaság.

A cikk a hirdetés alatt folytatódik.

Az esemény következtében megsérült repülőgép (HA-LOC) még jelen pillanatban is Heraklionban van, nincs repülőképes állapotban. A Malév szerelő csapatot küldött a gép átvizsgálására és megjavítására.

A Malév kommunikációs vezetője, Róna Márta nem beszélt a balesetről a sajtónak. A szombat este megjelent MTI-nek kiadott közlemény csak a repülőgép meghibásodásáról szólt, valamint arról, hogy műszaki okok miatt nem tudott felszállni a hazafelé tartó járat Heraklionból.

Update:
Róna Márta, a Malév kommunikációs igazgatója hétfőn az MTI-nek nem erősítette meg, hogy a farokrész a pályának csapódott volna. Annyit mondott, hogy a vizsgálat befejezéséig nem tud további információt adni. Később a NOL.hu érdeklődésére a Malév vezetése megerősítette, hogy a 737-800-as törzse a futóhoz (értsd: a futópályához – a szerk.) ért, azt ugyanakkor még nem tudják megbecsülni, milyen károk keletkeztek a repülőgépben.

A Malév szombati közleménye:
“Műszaki okok miatt nem tudott felszállni a Malév egyik repülőgépe a görögországi Heraklionban szombaton, az utasokat egy másik géppel hozza haza a légitársaság.

Róna Márta kommunikációs igazgató az MTI-nek elmondta: a heraklioni járat menetrend szerint 18 órakor érkezett volna Budapestre, a gép azonban meghibásodott, így nem tudott felszállni. A 161 utast a Malév egy másik menetrendszerinti járatával hozza haza, amely várhatóan 23 órakor érkezik meg a Liszt Ferenc repülőtérre. A meghibásodott repülőgépet a görög repülőtéren átvizsgálják, illetve elvégzik a szükséges javításokat – tette hozzá.”

Az AVHerald blog bejegyzése:
“A Malev Hungarian Airlines Boeing 737-800, registration HA-LOC performing flight MA-906 from Budapest (Hungary) to Heraklion (Greece) with 187 passengers, struck its tail onto the runway while landing in Heraklion at 15:47L (12:47Z) but managed to roll out safely, the aircraft taxied to the apron on its own power. The aircraft received substantial damage.

The return flight MA-907 supposed to carry 161 passengers had to be cancelled, the aircraft is still on the ground in Heraklion for repairs (standing Jun 26th 13:30Z). The passengers were rebooked onto other flights.”

Metars:
LGIR 251420Z 33010KT CAVOK 29/20 Q1007 NOSIG
LGIR 251350Z 33010KT CAVOK 29/20 Q1007 NOSIG
LGIR 251320Z 32008KT CAVOK 30/18 Q1007 NOSIG
LGIR 251250Z 31008KT CAVOK 30/18 Q1007 NOSIG
LGIR 251220Z 32008KT CAVOK 30/18 Q1008 NOSIG

LGIR 251150Z 32010KT CAVOK 30/18 Q1008 NOSIG
LGIR 251120Z 33012KT CAVOK 29/18 Q1008 NOSIG
LGIR 251050Z 32015KT CAVOK 29/18 Q1008 NOSIG
LGIR 251020Z 32015KT CAVOK 29/18 Q1008 NOSIG

Egy fotó a repülőgépről. HA-LOC, Malév Hungarian Airlines, Boeing 737-8Q8, cn 32797/1287:

Frissítve: 2011.06.27. 13:42

Kövess minket a közösségi médiában, és iratkozz fel napi hírösszefoglalónkra!
Hasznos, érdekes volt amit olvastál? Már egy újság árával támogathatod az AIRportal.hu működését!